Startpagina
METAR-TAF:

METAR-TAF

Vliegvelden :

Brussels South Charleroi Airport

Charleroi, België

breedte: 50-28N, lengte: 004-27E, hoogte: 187 m

Actueel weer

Dit bericht is 40 minuten geleden gemaakt, om 18:50 UTC
Wind 10 kt uit het noordoosten
Temperatuur 20°C
Vochtigheid 53%
Druk 1019 hPa
Zicht 10 km of meer
geen wolken onder 1500 m en geen cumulonimbus

METAR: EBCI 181850Z 05010KT CAVOK 20/10 Q1019 NOSIG

Tijdstip: 21:30 (19:30 UTC)

Verwachting

Dit bericht is 2 uur en het 20 minuten geleden gemaakt, om 17:10 UTC
Verwachting geldig van 18 om 18 UTC tot 19 om 24 UTC
Wind 10 kt uit het oostnoordoosten
Zicht 10 km of meer
geen wolken onder 1500 m en geen cumulonimbus

TAF: EBCI 181710Z 1818/1924 06010KT CAVOK

Waarnemingen en weersverwachtingen van meer dan 4000 vliegvelden (METAR en TAF).

De beschikbare stations zijn de gele en rode punten op de kaart.

Ga met uw muis naar het station om de naam te zien.

Klik dan om waarnemingen en weersverwachtingen te zien.

kaart wijzigen: klik op de groene knoppen met een zwart kruis om in te zoomen, op de groene knop met een streepje om uit te zoomen of op de groene pijlen voor aangrenzende kaarten.


METAR-TAF: